Time;durP1;ratioP1;P1;durP2;ratioP2;P2;SDS_P1;SDS_P2;PMS_P1;PMS_P2;Temp;Humidity;BMP_temperature;BMP_pressure;BME280_temperature;BME280_humidity;BME280_pressure;Samples;Min_cycle;Max_cycle;Signal;HPM_P1;HPM_P2
2021/05/22 05:01:06;;;;;;;7.25;5.65;;;;;;;14.14;68.86;95093.84;6178750;22;20032;-75
2021/05/22 05:03:32;;;;;;;6.25;5.85;;;;;;;15.11;66.83;95099.03;6238418;23;20380;-75
2021/05/22 05:05:57;;;;;;;6.50;5.90;;;;;;;13.84;71.06;95104.59;6240099;23;20050;-76
2021/05/22 05:08:24;;;;;;;5.85;5.45;;;;;;;15.10;67.95;95108.66;6211652;23;20017;-75
2021/05/22 05:10:49;;;;;;;6.00;5.50;;;;;;;15.67;65.41;95102.25;6187755;23;20058;-76
2021/05/22 05:13:16;;;;;;;6.43;5.10;;;;;;;15.40;64.80;95109.19;6156242;23;20091;-76
2021/05/22 05:15:41;;;;;;;5.05;4.65;;;;;;;15.10;66.12;95108.66;6182865;23;20051;-76
2021/05/22 05:18:06;;;;;;;5.40;4.95;;;;;;;16.53;61.65;95116.16;6207471;23;20008;-77
2021/05/22 05:20:32;;;;;;;5.22;4.78;;;;;;;15.39;64.59;95118.00;6157304;23;20358;-74
2021/05/22 05:22:58;;;;;;;4.45;4.05;;;;;;;15.44;64.36;95113.03;6209683;23;20001;-73
2021/05/22 05:25:23;;;;;;;4.63;4.13;;;;;;;15.76;65.35;95108.91;6156431;23;20016;-74
2021/05/22 05:27:48;;;;;;;4.38;4.07;;;;;;;16.50;64.43;95111.34;6182965;23;20332;-76
2021/05/22 05:30:15;;;;;;;3.92;3.63;;;;;;;17.28;61.64;95108.53;6181212;23;20008;-77
2021/05/22 05:32:41;;;;;;;3.75;3.50;;;;;;;17.55;59.80;95114.50;6182572;23;20166;-76
2021/05/22 05:35:09;;;;;;;3.13;2.92;;;;;;;17.82;57.41;95123.00;6181618;23;20442;-77
2021/05/22 05:37:35;;;;;;;3.43;3.23;;;;;;;18.21;54.64;95116.69;6158213;23;20005;-77
2021/05/22 05:40:00;;;;;;;3.22;2.97;;;;;;;20.10;51.33;95123.50;6207881;23;20004;-74
2021/05/22 05:42:26;;;;;;;4.07;3.67;;;;;;;20.14;52.02;95127.28;6182104;23;20343;-76
2021/05/22 05:44:51;;;;;;;3.38;2.88;;;;;;;21.18;48.68;95131.06;6157387;23;20063;-74
2021/05/22 05:47:17;;;;;;;4.40;2.88;;;;;;;22.10;44.85;95134.44;6206507;23;20027;-74
2021/05/22 05:49:42;;;;;;;4.40;3.20;;;;;;;22.92;44.90;95141.63;6209288;23;20001;-74
2021/05/22 05:52:08;;;;;;;5.25;2.78;;;;;;;21.77;47.48;95145.69;6207907;23;20342;-75
2021/05/22 05:54:34;;;;;;;4.95;2.80;;;;;;;22.73;46.30;95150.03;6182874;23;20057;-76
2021/05/22 05:56:59;;;;;;;3.42;2.72;;;;;;;23.42;44.75;95160.03;6182001;23;20004;-74
2021/05/22 05:59:25;;;;;;;3.00;2.80;;;;;;;23.70;45.04;95156.41;6182427;23;20004;-77
2021/05/22 06:01:50;;;;;;;2.97;2.78;;;;;;;22.92;45.65;95133.69;6152168;23;20609;-77
2021/05/22 06:04:16;;;;;;;5.93;5.35;;;;;;;24.13;43.28;95156.41;6175055;23;20009;-77
2021/05/22 06:06:41;;;;;;;3.70;3.40;;;;;;;22.74;45.71;95159.56;6201285;23;20047;-78
2021/05/22 06:09:07;;;;;;;8.13;7.32;;;;;;;25.68;41.08;95155.16;6176196;23;20001;-75
2021/05/22 06:11:33;;;;;;;4.32;3.92;;;;;;;26.50;38.86;95156.16;6203592;23;20001;-78
2021/05/22 06:13:59;;;;;;;4.03;3.60;;;;;;;27.71;36.48;95150.69;6152272;23;20005;-76
2021/05/22 06:18:50;;;;;;;7.18;6.70;;;;;;;27.30;38.60;95163.31;6203427;23;20482;-77
2021/05/22 06:21:15;;;;;;;4.50;4.20;;;;;;;24.87;41.89;95167.13;6201886;23;20008;-77
2021/05/22 06:23:41;;;;;;;4.40;3.97;;;;;;;26.79;38.80;95157.22;6178809;23;20009;-78
2021/05/22 06:26:06;;;;;;;4.55;4.15;;;;;;;27.51;37.83;95161.44;6176225;23;20008;-78
2021/05/22 06:28:32;;;;;;;7.88;3.95;;;;;;;23.16;45.32;95163.34;6203235;23;20451;-78
2021/05/22 06:31:00;;;;;;;5.25;4.10;;;;;;;21.41;51.56;95162.66;6176233;23;20061;-77
2021/05/22 06:33:25;;;;;;;4.55;4.15;;;;;;;20.51;54.26;95170.06;6178496;23;20009;-75
2021/05/22 06:35:51;;;;;;;4.70;4.38;;;;;;;19.71;56.64;95166.13;6171982;23;20087;-76
2021/05/22 06:38:16;;;;;;;4.78;4.13;;;;;;;19.73;55.69;95171.94;6199825;23;20084;-72
2021/05/22 06:40:43;;;;;;;5.80;4.60;;;;;;;20.50;55.57;95177.16;6178346;23;20028;-75
2021/05/22 06:43:08;;;;;;;4.70;4.30;;;;;;;21.01;52.78;95178.34;6174534;23;20001;-73
2021/05/22 06:45:44;;;;;;;8.80;3.70;;;;;;;22.84;46.67;95172.91;6202418;23;20005;-73
2021/05/22 06:48:13;;;;;;;4.65;4.25;;;;;;;22.34;49.29;95173.69;6174010;23;20012;-75
2021/05/22 06:50:38;;;;;;;4.97;4.57;;;;;;;19.40;57.66;95169.72;6199924;23;20005;-73
2021/05/22 06:53:04;;;;;;;4.72;4.43;;;;;;;19.29;57.43;95168.59;6200182;23;20426;-74
2021/05/22 06:55:30;;;;;;;9.43;6.68;;;;;;;18.88;54.88;95158.72;6151310;23;20005;-74
2021/05/22 06:57:55;;;;;;;6.38;5.55;;;;;;;18.77;58.64;95151.56;6176052;23;20040;-74
2021/05/22 07:00:21;;;;;;;6.72;6.13;;;;;;;18.87;59.85;95169.44;6175296;23;20343;-73
2021/05/22 07:02:46;;;;;;;9.02;8.23;;;;;;;18.40;60.44;95161.13;6176894;23;20012;-75
2021/05/22 07:05:12;;;;;;;6.10;4.90;;;;;;;19.00;59.73;95158.81;6174702;23;20056;-74
2021/05/22 07:07:39;;;;;;;4.85;4.45;;;;;;;18.67;60.63;95164.38;6176831;23;20005;-76
2021/05/22 07:10:05;;;;;;;5.20;4.68;;;;;;;19.14;59.58;95168.16;6175306;23;20020;-74
2021/05/22 07:12:31;;;;;;;5.10;4.70;;;;;;;19.52;58.34;95172.44;6151640;23;20016;-74
2021/05/22 07:14:56;;;;;;;6.65;5.90;;;;;;;19.29;58.22;95168.59;6175927;23;20144;-74
2021/05/22 07:17:22;;;;;;;5.75;4.55;;;;;;;19.31;59.47;95181.50;6174809;23;20001;-74
2021/05/22 07:19:47;;;;;;;11.18;10.02;;;;;;;19.27;58.07;95167.19;6176579;23;20009;-74
2021/05/22 07:22:12;;;;;;;8.70;7.80;;;;;;;19.75;58.10;95177.78;6173471;23;20011;-74
2021/05/22 07:24:38;;;;;;;6.30;5.80;;;;;;;19.85;58.83;95185.94;6178044;23;20005;-75
2021/05/22 07:27:04;;;;;;;7.72;7.13;;;;;;;20.60;56.12;95202.13;6173864;23;20501;-76
2021/05/22 07:29:30;;;;;;;5.85;5.38;;;;;;;20.16;57.21;95204.16;6202656;23;20001;-74
2021/05/22 07:31:56;;;;;;;13.13;11.82;;;;;;;20.33;56.31;95199.06;6175673;23;20001;-74
2021/05/22 07:34:21;;;;;;;26.05;21.38;;;;;;;19.89;57.95;95195.81;6150750;23;20009;-75
2021/05/22 07:36:47;;;;;;;7.88;6.80;;;;;;;19.28;56.94;95192.47;6176428;23;20108;-74
2021/05/22 07:39:13;;;;;;;20.05;16.58;;;;;;;20.52;55.82;95190.06;6174852;23;20028;-74
2021/05/22 07:41:39;;;;;;;14.63;12.38;;;;;;;20.04;56.42;95184.06;6152290;23;20075;-74
2021/05/22 07:44:05;;;;;;;8.60;5.20;;;;;;;20.59;54.35;95179.44;6174640;23;20744;-75
2021/05/22 07:46:31;;;;;;;6.53;6.03;;;;;;;19.05;56.96;95173.91;6201820;23;20089;-74
2021/05/22 07:48:56;;;;;;;10.13;9.00;;;;;;;19.99;55.17;95154.00;6171907;23;20312;-74
2021/05/22 07:51:21;;;;;;;6.57;4.90;;;;;;;20.12;57.05;95137.22;6150669;23;20031;-75
2021/05/22 07:53:47;;;;;;;5.95;5.45;;;;;;;20.73;54.19;95131.63;6175612;23;20032;-73
2021/05/22 07:56:12;;;;;;;5.47;5.07;;;;;;;20.27;55.21;95126.31;6174052;23;20531;-74
2021/05/22 07:58:38;;;;;;;13.75;10.05;;;;;;;20.01;54.48;95138.00;6176086;23;20012;-74
2021/05/22 08:01:03;;;;;;;8.65;4.93;;;;;;;18.68;59.14;95118.75;6173972;23;20044;-74
2021/05/22 08:03:29;;;;;;;4.85;4.45;;;;;;;19.09;56.33;95115.50;6151733;23;20012;-76
2021/05/22 08:05:54;;;;;;;5.03;4.32;;;;;;;19.50;57.35;95124.53;6200083;23;20028;-75
2021/05/22 08:08:20;;;;;;;5.32;4.45;;;;;;;20.19;57.27;95116.09;6150742;23;20017;-75
2021/05/22 08:10:46;;;;;;;4.97;4.00;;;;;;;20.46;53.24;95115.47;6199394;23;20008;-74
2021/05/22 08:13:12;;;;;;;4.43;4.03;;;;;;;19.52;56.33;95110.16;6175416;23;20005;-75
2021/05/22 08:15:37;;;;;;;8.75;4.28;;;;;;;20.84;57.32;95114.22;6176185;23;20005;-76
2021/05/22 08:18:03;;;;;;;4.85;4.55;;;;;;;20.31;55.21;95111.69;6174620;23;20132;-75
2021/05/22 08:20:28;;;;;;;5.90;4.20;;;;;;;18.18;59.95;95098.75;6174408;23;20001;-75
2021/05/22 08:22:54;;;;;;;4.93;4.63;;;;;;;18.50;61.02;95120.50;6174742;23;20450;-74
2021/05/22 08:25:19;;;;;;;5.22;4.85;;;;;;;20.22;56.35;95126.16;6174848;23;20016;-74
2021/05/22 08:27:45;;;;;;;4.45;4.05;;;;;;;20.82;58.83;95129.44;6173543;23;20001;-75
2021/05/22 08:30:11;;;;;;;4.10;3.80;;;;;;;20.89;55.43;95128.31;6175912;23;20093;-75
2021/05/22 08:32:37;;;;;;;4.40;4.10;;;;;;;19.98;55.79;95131.34;6175035;23;20044;-75
2021/05/22 08:35:04;;;;;;;5.47;4.47;;;;;;;20.86;56.27;95128.78;6175011;23;20001;-75
2021/05/22 08:37:29;;;;;;;4.50;4.20;;;;;;;20.75;58.61;95126.94;6176175;23;20009;-76
2021/05/22 08:39:55;;;;;;;4.82;4.10;;;;;;;20.25;56.43;95121.25;6172757;23;20420;-75
2021/05/22 08:42:25;;;;;;;4.20;3.63;;;;;;;19.34;58.87;95102.25;6174345;23;20016;-75
2021/05/22 08:44:50;;;;;;;3.75;3.45;;;;;;;20.92;55.01;95117.31;6173335;23;20357;-75
2021/05/22 08:47:16;;;;;;;5.57;3.67;;;;;;;20.45;57.08;95120.97;6174813;23;20001;-76
2021/05/22 08:49:42;;;;;;;5.05;4.55;;;;;;;19.97;57.78;95100.81;6174458;23;20005;-76
2021/05/22 08:52:13;;;;;;;4.47;3.72;;;;;;;20.74;55.56;95114.78;6150150;23;20037;-75
2021/05/22 08:54:39;;;;;;;4.70;4.40;;;;;;;20.68;54.29;95109.66;6200238;23;20005;-75
2021/05/22 08:57:04;;;;;;;7.68;6.88;;;;;;;21.51;56.36;95110.13;6172609;23;20027;-75
2021/05/22 08:59:30;;;;;;;4.47;4.18;;;;;;;21.73;52.86;95112.91;6174336;23;20554;-76
2021/05/22 09:01:56;;;;;;;6.03;4.80;;;;;;;21.18;55.26;95102.88;6174047;23;20347;-77
2021/05/22 09:04:21;;;;;;;4.43;4.13;;;;;;;21.17;54.10;95103.91;6151852;23;20005;-75
2021/05/22 09:07:03;;;;;;;4.90;4.47;;;;;;;21.58;53.68;95104.72;6200629;23;20485;-74
2021/05/22 09:09:42;;;;;;;5.10;4.72;;;;;;;20.05;59.20;95107.59;6177718;23;20001;-76
2021/05/22 09:12:08;;;;;;;5.22;4.82;;;;;;;19.91;57.59;95093.03;6177165;23;20410;-75
2021/05/22 09:14:51;;;;;;;4.95;4.65;;;;;;;20.63;57.56;95107.69;6172744;23;20016;-75
2021/05/22 09:17:18;;;;;;;5.82;5.20;;;;;;;21.08;56.21;95089.47;6176676;23;20028;-75
2021/05/22 09:19:43;;;;;;;6.68;5.15;;;;;;;21.52;56.53;95090.63;6150358;23;20424;-74
2021/05/22 09:22:19;;;;;;;6.22;5.60;;;;;;;21.18;56.78;95092.34;6202059;23;20052;-74
2021/05/22 09:25:01;;;;;;;6.70;6.22;;;;;;;21.13;56.85;95089.59;6200494;23;20084;-74
2021/05/22 09:27:34;;;;;;;9.18;5.65;;;;;;;21.74;55.24;95090.75;6174756;23;20000;-74
2021/05/22 09:30:11;;;;;;;6.03;5.57;;;;;;;20.84;55.18;95087.88;6176976;23;20005;-74
2021/05/22 09:32:37;;;;;;;6.00;5.18;;;;;;;21.37;55.19;95085.88;6173415;23;20051;-75
2021/05/22 09:35:04;;;;;;;5.38;4.97;;;;;;;21.91;53.95;95081.09;6149763;23;20052;-75
2021/05/22 09:37:29;;;;;;;5.35;4.93;;;;;;;21.45;54.70;95090.75;6176065;23;20013;-75
2021/05/22 09:39:54;;;;;;;4.70;4.40;;;;;;;22.15;56.08;95085.22;6175408;23;20019;-75
2021/05/22 09:42:27;;;;;;;5.00;4.63;;;;;;;21.46;53.70;95083.66;6176870;23;20011;-74
2021/05/22 09:44:52;;;;;;;4.38;3.95;;;;;;;20.85;54.42;95084.22;6151220;23;20044;-75
2021/05/22 09:47:18;;;;;;;5.57;3.65;;;;;;;20.75;53.61;95084.81;6177675;23;20012;-75
2021/05/22 09:49:43;;;;;;;3.45;3.15;;;;;;;20.97;55.37;95092.91;6201422;23;20005;-74
2021/05/22 09:52:10;;;;;;;4.40;4.10;;;;;;;20.72;54.27;95085.25;6177927;23;20012;-74
2021/05/22 09:54:42;;;;;;;6.90;3.95;;;;;;;20.28;55.03;95077.94;6201786;23;20031;-74
2021/05/22 09:57:08;;;;;;;3.58;3.35;;;;;;;20.35;56.01;95079.44;6178789;23;20013;-74
2021/05/22 09:59:34;;;;;;;3.10;2.90;;;;;;;20.73;52.64;95065.00;6179980;23;20005;-75
2021/05/22 10:01:59;;;;;;;2.97;2.88;;;;;;;20.29;53.21;95075.06;6151570;23;20013;-74
2021/05/22 10:04:25;;;;;;;2.72;2.53;;;;;;;20.63;52.99;95065.59;6179047;23;20427;-76
2021/05/22 10:06:51;;;;;;;2.92;2.63;;;;;;;20.47;53.55;95069.72;6175946;23;20422;-73
2021/05/22 10:09:17;;;;;;;3.70;3.10;;;;;;;20.79;54.80;95064.06;6178928;23;20080;-75
2021/05/22 10:12:02;;;;;;;3.63;3.20;;;;;;;20.01;56.99;95051.22;6176580;23;20080;-76
2021/05/22 10:14:32;;;;;;;6.30;3.28;;;;;;;19.63;59.56;95050.78;6177154;23;20555;-77
2021/05/22 10:16:58;;;;;;;3.40;3.10;;;;;;;19.69;59.04;95031.47;6179552;23;20011;-76
2021/05/22 10:19:25;;;;;;;3.63;3.33;;;;;;;20.44;59.18;95050.94;6151382;23;20005;-75
2021/05/22 10:21:51;;;;;;;5.88;3.67;;;;;;;20.38;57.56;95041.34;6202865;23;20009;-77
2021/05/22 10:24:16;;;;;;;4.93;3.80;;;;;;;20.30;59.88;95045.09;6176522;23;20192;-77
2021/05/22 10:26:42;;;;;;;2.80;2.60;;;;;;;20.58;56.12;95031.22;6177349;23;20009;-77
2021/05/22 10:29:07;;;;;;;3.25;2.95;;;;;;;20.76;56.64;95028.47;6176841;23;20009;-78
2021/05/22 10:31:40;;;;;;;3.03;2.15;;;;;;;20.65;53.82;95023.22;6152159;23;20446;-77
2021/05/22 10:34:25;;;;;;;3.05;2.70;;;;;;;20.77;52.71;95018.75;6153061;23;20000;-77
2021/05/22 10:36:51;;;;;;;2.58;2.38;;;;;;;20.61;55.80;95016.84;6176008;23;20009;-74
2021/05/22 10:39:36;;;;;;;2.33;2.08;;;;;;;20.21;54.14;94993.81;6178683;23;20029;-74
2021/05/22 10:42:02;;;;;;;2.40;2.00;;;;;;;20.31;52.62;95007.25;6177170;23;20413;-75
2021/05/22 10:44:33;;;;;;;2.50;2.30;;;;;;;20.59;53.31;94982.03;6152726;23;20009;-75
2021/05/22 10:47:06;;;;;;;3.10;2.45;;;;;;;20.71;52.18;94982.81;6152800;23;20073;-74
2021/05/22 10:49:56;;;;;;;2.30;2.10;;;;;;;20.91;52.56;94978.75;6151555;23;20526;-75
2021/05/22 10:52:32;;;;;;;4.45;2.30;;;;;;;20.78;53.86;94979.00;6178118;23;20121;-74
2021/05/22 10:55:11;;;;;;;2.75;2.55;;;;;;;21.07;55.57;94957.97;6150960;23;20013;-74
2021/05/22 10:57:46;;;;;;;2.65;1.55;;;;;;;20.86;51.02;94972.59;6176625;23;20000;-73
2021/05/22 11:00:16;;;;;;;2.70;2.00;;;;;;;21.34;51.30;94977.47;6179464;23;20131;-74
2021/05/22 11:02:44;;;;;;;2.65;2.03;;;;;;;21.05;51.53;94974.03;6179802;23;20020;-74
2021/05/22 11:05:37;;;;;;;7.70;2.13;;;;;;;21.59;50.89;94967.38;6157537;23;20318;-73
2021/05/22 11:08:03;;;;;;;2.97;2.00;;;;;;;20.54;51.13;94961.69;6208590;23;20004;-76
2021/05/22 11:10:39;;;;;;;2.50;2.30;;;;;;;20.68;53.75;94944.59;6181799;23;20016;-75
2021/05/22 11:13:08;;;;;;;3.70;2.33;;;;;;;20.54;52.28;94945.88;6182790;23;20335;-76
2021/05/22 11:15:43;;;;;;;3.40;3.10;;;;;;;20.90;55.39;94923.69;6155710;23;20036;-74
2021/05/22 11:18:08;;;;;;;3.85;2.50;;;;;;;21.07;52.90;94937.69;6183451;23;20159;-75
2021/05/22 11:20:35;;;;;;;7.97;2.10;;;;;;;21.48;52.29;94932.13;6156306;23;20019;-73
2021/05/22 11:23:01;;;;;;;5.38;2.28;;;;;;;21.66;50.18;94933.75;6157616;23;20012;-74
2021/05/22 11:25:42;;;;;;;2.88;2.00;;;;;;;21.65;49.66;94907.59;6182104;23;20051;-73
2021/05/22 11:28:09;;;;;;;2.28;2.00;;;;;;;21.47;46.33;94904.19;6206728;23;20427;-74
2021/05/22 11:30:35;;;;;;;1.73;1.63;;;;;;;21.27;48.98;94916.22;6181877;23;20058;-73
2021/05/22 11:33:01;;;;;;;3.53;2.25;;;;;;;21.55;47.38;94911.69;6180033;23;20043;-73
2021/05/22 11:35:26;;;;;;;2.45;2.25;;;;;;;21.29;46.67;94914.94;6182629;23;20005;-76
2021/05/22 11:37:53;;;;;;;3.35;2.60;;;;;;;21.46;48.96;94901.78;6207587;23;20005;-73
2021/05/22 11:40:45;;;;;;;4.10;2.50;;;;;;;21.21;46.39;94915.34;6181833;23;20012;-73
2021/05/22 11:53:17;;;;;;;2.40;2.05;;;;;;;21.78;46.97;94916.00;6207348;23;20055;-73
2021/05/22 11:55:42;;;;;;;3.78;2.42;;;;;;;22.11;45.77;94915.19;6181948;23;20019;-72
2021/05/22 11:58:11;;;;;;;4.85;2.17;;;;;;;22.14;45.37;94898.06;6181058;23;20359;-73
2021/05/22 12:00:36;;;;;;;3.60;1.92;;;;;;;21.88;44.71;94907.44;6157264;23;20012;-72
2021/05/22 12:03:02;;;;;;;3.53;1.90;;;;;;;21.87;44.60;94908.47;6155500;23;20063;-72
2021/05/22 12:05:40;;;;;;;3.83;1.98;;;;;;;22.34;45.47;94898.34;6182591;23;20601;-73
2021/05/22 12:08:13;;;;;;;2.70;2.50;;;;;;;22.27;45.46;94887.16;6154713;23;20443;-72
2021/05/22 12:10:39;;;;;;;2.80;2.58;;;;;;;22.21;44.00;94873.13;6156599;23;20019;-73
2021/05/22 12:13:04;;;;;;;2.78;2.08;;;;;;;22.31;44.26;94883.81;6180368;23;20040;-72
2021/05/22 12:15:30;;;;;;;2.78;1.83;;;;;;;22.30;43.53;94871.63;6156120;23;20016;-73
2021/05/22 12:28:00;;;;;;;2.67;1.52;;;;;;;23.07;44.32;94871.47;6208391;23;20437;-76
2021/05/22 12:30:26;;;;;;;2.28;2.03;;;;;;;22.98;43.12;94859.75;6156165;23;20012;-77
2021/05/22 12:33:12;;;;;;;2.40;1.60;;;;;;;22.84;43.92;94858.53;6179041;23;20019;-76
2021/05/22 12:35:38;;;;;;;2.10;2.00;;;;;;;22.52;44.65;94864.50;6156291;23;20004;-76
2021/05/22 12:38:03;;;;;;;2.90;2.03;;;;;;;22.48;44.70;94852.03;6154619;23;20008;-78
2021/05/22 12:40:42;;;;;;;2.05;1.70;;;;;;;22.36;44.66;94860.09;6156877;23;20442;-78
2021/05/22 12:43:08;;;;;;;2.53;2.03;;;;;;;22.51;45.49;94841.78;6156309;23;20080;-79
2021/05/22 12:45:35;;;;;;;1.92;1.73;;;;;;;22.56;43.90;94844.50;6180922;23;20112;-78
2021/05/22 12:48:00;;;;;;;3.63;1.73;;;;;;;22.60;43.70;94852.72;6156735;23;20000;-78
2021/05/22 12:50:30;;;;;;;2.80;2.28;;;;;;;22.36;44.75;94822.34;6155360;23;20008;-78
2021/05/22 12:52:57;;;;;;;2.97;1.70;;;;;;;22.69;43.19;94847.81;6182682;23;20062;-79
2021/05/22 12:55:28;;;;;;;2.25;2.05;;;;;;;22.59;41.55;94841.38;6179912;23;20465;-79
2021/05/22 12:57:53;;;;;;;3.13;2.60;;;;;;;22.89;42.21;94826.91;6181899;23;20058;-78
2021/05/22 13:00:19;;;;;;;2.33;2.13;;;;;;;22.81;40.54;94825.50;6154757;23;20039;-78
2021/05/22 13:02:48;;;;;;;2.47;2.10;;;;;;;22.69;40.52;94832.78;6150324;23;20013;-78
2021/05/22 13:05:18;;;;;;;2.22;2.03;;;;;;;22.63;41.47;94828.47;6150500;23;20005;-78
2021/05/22 13:07:47;;;;;;;2.65;1.95;;;;;;;22.71;41.53;94819.31;6174256;23;20008;-78
2021/05/22 13:37:07;;;;;;;1.67;1.33;;;;;;;22.80;40.01;94771.06;6179371;23;20036;-76
2021/05/22 13:39:33;;;;;;;1.80;1.48;;;;;;;22.87;40.04;94755.00;6151999;23;20005;-78
2021/05/22 13:41:58;;;;;;;3.47;1.95;;;;;;;22.92;38.98;94757.72;6151855;23;20028;-78
2021/05/22 13:44:27;;;;;;;1.63;1.48;;;;;;;22.72;38.81;94752.25;6152723;23;20005;-75
2021/05/22 13:46:52;;;;;;;1.55;1.40;;;;;;;22.89;38.80;94747.66;6151572;23;20361;-76
2021/05/22 13:49:18;;;;;;;3.00;1.65;;;;;;;22.79;39.01;94747.56;6152819;23;20359;-76
2021/05/22 13:51:45;;;;;;;3.63;1.85;;;;;;;22.73;38.36;94761.78;6150258;23;20056;-75
2021/05/22 13:54:12;;;;;;;1.45;1.20;;;;;;;22.71;38.94;94755.91;6177821;23;20005;-74
2021/05/22 13:56:37;;;;;;;1.48;1.25;;;;;;;22.92;38.76;94758.50;6151327;23;20451;-75
2021/05/22 13:59:03;;;;;;;5.03;0.90;;;;;;;22.89;37.91;94756.34;6152014;23;20008;-76
2021/05/22 14:01:30;;;;;;;1.20;0.90;;;;;;;22.63;39.01;94757.16;6176344;23;20021;-75
2021/05/22 14:03:56;;;;;;;1.60;1.10;;;;;;;22.53;37.92;94755.22;6176441;23;20009;-76
2021/05/22 14:06:22;;;;;;;1.83;1.55;;;;;;;22.41;39.76;94745.84;6152739;23;20063;-76
2021/05/22 14:08:48;;;;;;;1.02;0.93;;;;;;;22.48;38.97;94736.66;6150063;23;20374;-77
2021/05/22 14:11:13;;;;;;;1.48;1.20;;;;;;;22.64;39.12;94750.81;6178234;23;20005;-76
2021/05/22 14:13:39;;;;;;;1.88;1.30;;;;;;;22.91;37.34;94759.56;6173511;23;20020;-76
2021/05/22 14:16:05;;;;;;;2.45;1.00;;;;;;;22.93;38.97;94761.94;6151814;23;20009;-76
2021/05/22 14:18:31;;;;;;;1.80;1.00;;;;;;;22.87;38.46;94762.94;6176150;23;20008;-75
2021/05/22 14:20:56;;;;;;;1.00;0.88;;;;;;;22.84;38.17;94760.78;6151670;23;20001;-74
2021/05/22 14:23:22;;;;;;;1.58;1.15;;;;;;;22.80;38.04;94759.69;6152545;23;20021;-75
2021/05/22 14:25:48;;;;;;;2.90;1.30;;;;;;;22.83;39.73;94753.94;6150719;23;20451;-76
2021/05/22 14:28:13;;;;;;;1.23;0.82;;;;;;;23.02;39.06;94757.78;6176746;23;20025;-75
2021/05/22 14:30:39;;;;;;;1.38;0.93;;;;;;;22.85;37.67;94742.06;6149055;23;20020;-76
2021/05/22 14:33:05;;;;;;;1.90;0.90;;;;;;;22.74;37.07;94734.28;6152020;23;20355;-75
2021/05/22 14:35:30;;;;;;;2.80;1.08;;;;;;;22.80;37.71;94742.00;6150048;23;20005;-76
2021/05/22 14:37:56;;;;;;;2.40;1.70;;;;;;;22.73;39.57;94733.53;6152527;23;20001;-76
2021/05/22 14:40:23;;;;;;;2.63;1.20;;;;;;;22.74;38.30;94747.50;6150786;23;20435;-76
2021/05/22 14:42:48;;;;;;;2.83;1.20;;;;;;;22.63;37.88;94745.78;6149943;23;20001;-75
2021/05/22 14:45:14;;;;;;;2.20;0.93;;;;;;;22.81;38.41;94740.16;6151974;23;20013;-76
2021/05/22 14:47:41;;;;;;;5.47;1.05;;;;;;;22.92;37.31;94757.72;6174178;23;20087;-76
2021/05/22 14:50:07;;;;;;;1.48;1.10;;;;;;;22.88;38.42;94751.31;6152163;23;20013;-75
2021/05/22 14:52:32;;;;;;;1.25;1.15;;;;;;;22.79;37.19;94748.34;6149813;23;20020;-75
2021/05/22 14:54:58;;;;;;;2.30;1.00;;;;;;;22.76;36.63;94737.50;6152412;23;20001;-76
2021/05/22 14:57:24;;;;;;;1.83;1.00;;;;;;;22.66;36.45;94738.22;6176098;23;20005;-75
2021/05/22 14:59:50;;;;;;;2.75;1.08;;;;;;;22.78;36.74;94735.38;6151317;23;20005;-77
2021/05/22 15:02:16;;;;;;;3.83;1.02;;;;;;;22.82;38.08;94720.63;6152111;23;20020;-76
2021/05/22 15:04:41;;;;;;;2.88;1.02;;;;;;;22.79;36.67;94731.72;6149957;23;20009;-76
2021/05/22 15:07:07;;;;;;;3.40;0.93;;;;;;;22.80;36.91;94728.81;6177404;23;20447;-76
2021/05/22 15:09:35;;;;;;;2.90;0.95;;;;;;;22.74;36.78;94721.09;6149542;23;20076;-77
2021/05/22 15:12:00;;;;;;;4.13;1.10;;;;;;;22.79;37.32;94742.28;6152761;23;20016;-76
2021/05/22 15:14:27;;;;;;;1.20;0.98;;;;;;;22.68;37.22;94751.94;6174785;23;20039;-77
2021/05/22 15:16:53;;;;;;;2.28;1.05;;;;;;;22.79;37.41;94743.06;6176552;23;20055;-76
2021/05/22 15:19:19;;;;;;;1.23;1.00;;;;;;;22.75;36.83;94715.56;6151848;23;20008;-77
2021/05/22 15:21:45;;;;;;;4.93;1.10;;;;;;;22.64;35.41;94719.13;6149648;23;20465;-77
2021/05/22 15:24:11;;;;;;;5.25;1.10;;;;;;;22.66;36.65;94722.34;6151713;23;20016;-77
2021/05/22 15:26:36;;;;;;;1.00;0.70;;;;;;;22.54;37.11;94709.25;6149157;23;20088;-77
2021/05/22 15:29:02;;;;;;;1.42;1.05;;;;;;;22.51;36.77;94724.81;6152518;23;20040;-77
2021/05/22 15:31:27;;;;;;;4.18;1.17;;;;;;;22.27;37.93;94716.41;6149825;23;20012;-77
2021/05/22 15:33:53;;;;;;;1.20;1.00;;;;;;;22.20;37.34;94710.53;6151413;23;20013;-76
2021/05/22 15:36:19;;;;;;;4.25;1.42;;;;;;;22.41;37.99;94725.50;6150899;23;20005;-78
2021/05/22 15:38:45;;;;;;;2.78;1.00;;;;;;;22.39;37.26;94718.91;6150791;23;20032;-76
2021/05/22 15:41:10;;;;;;;2.22;1.35;;;;;;;22.50;37.73;94726.69;6151519;23;20355;-77
2021/05/22 15:44:12;;;;;;;2.30;1.13;;;;;;;22.52;36.82;94721.94;6174615;23;20005;-76
2021/05/22 15:46:29;;;;;;;3.55;1.40;;;;;;;22.44;36.51;94730.28;6172302;23;20075;-76
2021/05/22 15:59:33;;;;;;;1.90;1.27;;;;;;;22.70;36.50;94738.50;6177083;23;20099;-77
2021/05/22 16:02:25;;;;;;;2.33;1.48;;;;;;;22.65;34.40;94738.41;6150322;23;20036;-77
2021/05/22 16:05:18;;;;;;;5.50;1.90;;;;;;;22.70;35.34;94741.16;6175262;23;20005;-77
2021/05/22 16:07:44;;;;;;;3.08;1.48;;;;;;;22.59;36.87;94746.28;6157167;23;20092;-77
2021/05/22 16:10:10;;;;;;;5.32;1.55;;;;;;;22.43;36.71;94749.84;6174130;23;20017;-77
2021/05/22 16:12:35;;;;;;;2.35;1.55;;;;;;;22.29;37.47;94743.34;6176704;23;20036;-77
2021/05/22 16:15:01;;;;;;;5.95;1.55;;;;;;;22.05;38.65;94713.81;6174537;23;20020;-77
2021/05/22 16:17:26;;;;;;;4.57;1.60;;;;;;;22.11;41.11;94733.13;6151002;23;20005;-76
2021/05/22 16:19:51;;;;;;;2.83;1.23;;;;;;;21.97;43.47;94721.34;6175648;23;20008;-77
2021/05/22 16:22:17;;;;;;;4.43;4.03;;;;;;;22.00;48.64;94731.41;6149916;23;20688;-77
2021/05/22 16:24:42;;;;;;;3.10;1.73;;;;;;;21.90;43.75;94721.53;6150026;23;20001;-76
2021/05/22 16:27:09;;;;;;;4.60;1.70;;;;;;;21.97;45.00;94708.16;6148961;23;20016;-76
2021/05/22 16:29:36;;;;;;;7.80;2.08;;;;;;;22.13;45.00;94728.38;6176835;23;20403;-77
2021/05/22 16:32:01;;;;;;;8.15;6.43;;;;;;;22.17;43.89;94734.78;6149495;23;20067;-77
2021/05/22 16:34:27;;;;;;;5.80;5.30;;;;;;;22.20;43.81;94729.00;6151140;23;20067;-77
2021/05/22 16:36:53;;;;;;;6.05;4.72;;;;;;;22.15;43.52;94731.59;6174780;23;20552;-77
2021/05/22 16:39:18;;;;;;;3.88;2.00;;;;;;;22.17;41.99;94737.41;6149401;23;20009;-77
2021/05/22 16:41:45;;;;;;;1.80;1.45;;;;;;;22.06;42.00;94730.41;6150232;23;20009;-74
2021/05/22 16:44:10;;;;;;;5.18;1.52;;;;;;;21.67;43.54;94723.59;6174315;23;20036;-77
2021/05/22 16:46:36;;;;;;;2.28;1.10;;;;;;;21.61;44.47;94750.97;6151607;23;20005;-77
2021/05/22 16:49:03;;;;;;;2.63;2.42;;;;;;;21.15;46.76;94726.59;6148856;23;20044;-77
2021/05/22 16:51:31;;;;;;;7.78;6.75;;;;;;;21.10;47.49;94752.03;6151798;23;20104;-76
2021/05/22 16:53:59;;;;;;;9.77;8.55;;;;;;;20.84;49.84;94738.47;6149102;23;20013;-76
2021/05/22 16:56:29;;;;;;;13.93;10.73;;;;;;;20.82;52.56;94756.34;6175255;23;20084;-77
2021/05/22 16:58:57;;;;;;;13.35;9.88;;;;;;;20.55;54.26;94744.03;6151820;23;20013;-76
2021/05/22 17:01:23;;;;;;;30.60;4.78;;;;;;;20.35;55.75;94755.00;6149575;23;20115;-77
2021/05/22 17:03:48;;;;;;;3.67;1.80;;;;;;;20.15;54.78;94759.84;6151842;23;20009;-77
2021/05/22 17:06:16;;;;;;;10.02;9.23;;;;;;;20.03;55.31;94767.78;6173908;23;20420;-77
2021/05/22 17:08:42;;;;;;;9.00;7.90;;;;;;;19.83;57.13;94786.56;6151403;23;20439;-76
2021/05/22 17:11:07;;;;;;;31.40;23.83;;;;;;;19.43;58.51;94777.81;6175408;23;20008;-75
2021/05/22 17:16:36;;;;;;;7.10;6.30;;;;;;;18.84;59.18;94766.47;6177057;23;20016;-77
2021/05/22 17:19:02;;;;;;;10.23;4.95;;;;;;;18.86;58.51;94767.03;6173633;23;20447;-74
2021/05/22 17:21:27;;;;;;;11.73;7.07;;;;;;;18.75;58.33;94751.28;6200955;23;20072;-75
2021/05/22 17:26:56;;;;;;;5.13;2.92;;;;;;;18.72;54.99;94775.34;6196979;23;20089;-76
2021/05/22 17:29:41;;;;;;;8.93;2.95;;;;;;;18.54;57.19;94752.59;6197223;23;20347;-84
2021/05/22 17:32:27;;;;;;;3.25;2.67;;;;;;;18.68;54.02;94774.19;6172603;23;20023;-80
2021/05/22 17:37:38;;;;;;;13.23;11.82;;;;;;;18.64;55.15;94765.97;6176066;23;20044;-80
2021/05/22 17:40:09;;;;;;;25.33;20.83;;;;;;;18.63;54.76;94766.16;6149675;23;20490;-79
2021/05/22 17:42:34;;;;;;;63.03;48.47;;;;;;;18.56;54.39;94757.63;6151205;23;20013;-80